Shallowater, TX (79363)

8:23 PM CDT on July 07, 2015 (GMT -0500)
Sierra Vista | | Change Station
CLOSE
Current Station
Personal Weather Station
Location: Lubbock, TX
Elevation: 3284 ft
Nearby Weather Stations

Elev 3284 ft 33.62 °N, 101.96 °W | Updated 4 minutes ago

Overcast
Overcast
66.9 °F
Feels Like 66.9 °F
N
5.3
Wind Variable Wind from NNE

Today
High -- | Low -- °F
--% Chance of Precip.
Yesterday
High -- | Low -- °F
Precip. -- in
6:43 AM 9:01 PM
Waning Gibbous, 59% visible
Pressure 30.07 in
Visibility 8.0 miles
Clouds Mostly Cloudy 1400 ft
Overcast 1900 ft
Dew Point 61 °F
Humidity 81%
Rainfall 1.22 in
Snow Depth Not available.
UV 0 out of 12
Pollen .50 out of 12
Air Quality Not available.
Flu Activity Not available.
SPECI KLBB 080121Z 05009KT 8SM BKN014 OVC019 19/17 A3007 RMK AO2 T01890167

More Conditions Fewer Conditions

Pressure 30.07 in
Visibility 8.0 miles
Clouds Mostly Cloudy 1400 ft
Overcast 1900 ft
Dew Point 61 °F
Humidity 81%
Rainfall 1.22 in
Snow Depth Not available.
UV 0 out of 12
Pollen .50 out of 12
Air Quality Not available.
Flu Activity Not available.
SPECI KLBB 080121Z 05009KT 8SM BKN014 OVC019 19/17 A3007 RMK AO2 T01890167

More Conditions Fewer Conditions

10-Day Weather Forecast

×

Almanac

Astronomy

Jul. 07, 2015 Rise Set
Actual Time
Civil Twilight
Nautical Twilight
Astronomical Twilight
Moon
Length of Visible Light
Length of Day
Tomorrow will be .
, % of the Moon is Illuminated

Today's Extremes

State Highs State Lows

Community

WunderPhotos

Upload Photos

1,835,987 photos uploaded!

WunderBlogs® & News

Nearby

Air Quality

  Air Quality AQ Index Pollutant
Not available.

Snow Depth

Station Depth Elevation

Earthquake Activity

City Distance Mag. Time & Date
Minimum magnitude displayed is 2.5.

Coastal Water Temperatures

Place Temperature

Stations

Nearby Weather Stations

Station Location Temp. Windchill Dew Point Humidity Wind Precip. Elev Updated Type